createdAt,value
2023-11-07T00:02:42.818Z,7.30
2023-11-07T00:07:48.339Z,10.20
2023-11-07T00:12:52.402Z,9.90
2023-11-07T00:17:56.766Z,5.57
2023-11-07T00:23:02.011Z,5.25
2023-11-07T00:28:06.552Z,5.22
2023-11-07T00:33:10.518Z,5.47
2023-11-07T00:38:15.970Z,4.13
2023-11-07T00:43:19.964Z,8.18
2023-11-07T00:48:23.963Z,6.95
2023-11-07T00:53:29.353Z,6.03
2023-11-07T00:58:33.266Z,6.57
2023-11-07T01:03:37.526Z,4.57
2023-11-07T01:08:42.885Z,5.35
2023-11-07T01:13:46.963Z,7.93
2023-11-07T01:18:51.012Z,14.82
2023-11-07T01:23:56.450Z,9.20
2023-11-07T01:29:00.762Z,6.13
2023-11-07T01:34:04.846Z,4.90
2023-11-07T01:39:11.177Z,6.47
2023-11-07T01:44:15.100Z,5.07
2023-11-07T01:49:19.201Z,3.78
2023-11-07T01:54:26.461Z,3.50
2023-11-07T01:59:30.975Z,10.20
2023-11-07T02:04:35.721Z,4.45
2023-11-07T02:09:41.329Z,3.05
2023-11-07T02:14:45.840Z,2.28
2023-11-07T02:19:49.891Z,2.78
2023-11-07T02:24:55.107Z,2.95
2023-11-07T02:29:58.965Z,2.80
2023-11-07T02:35:02.950Z,4.30
2023-11-07T02:40:11.257Z,3.45
2023-11-07T02:45:15.885Z,8.87
2023-11-07T02:50:20.282Z,3.78
2023-11-07T02:55:25.685Z,3.40
2023-11-07T03:00:31.978Z,2.97
2023-11-07T03:05:36.983Z,2.95
2023-11-07T03:10:42.942Z,3.42
2023-11-07T03:15:46.800Z,3.00
2023-11-07T03:20:50.639Z,2.92
2023-11-07T03:25:56.317Z,3.47
2023-11-07T03:31:00.330Z,6.07
2023-11-07T03:36:04.636Z,3.72
2023-11-07T03:41:10.165Z,3.40
2023-11-07T03:46:14.760Z,3.38
2023-11-07T03:51:18.802Z,4.63
2023-11-07T03:56:24.576Z,3.80
2023-11-07T04:01:36.678Z,3.42
2023-11-07T04:06:40.610Z,3.90
2023-11-07T04:11:46.072Z,4.00
2023-11-07T04:16:50.262Z,4.30
2023-11-07T04:21:56.043Z,3.85
2023-11-07T04:27:01.346Z,7.57
2023-11-07T04:32:05.815Z,8.07
2023-11-07T04:37:10.032Z,7.13
2023-11-07T04:42:15.571Z,8.23
2023-11-07T04:47:20.388Z,22.80
2023-11-07T04:52:24.859Z,24.27
2023-11-07T04:57:30.641Z,8.52
2023-11-07T05:02:34.757Z,21.50
2023-11-07T05:07:38.956Z,8.05
2023-11-07T05:12:44.299Z,11.35
2023-11-07T05:17:49.415Z,5.03
2023-11-07T05:22:53.503Z,7.35
2023-11-07T05:27:58.766Z,6.05
2023-11-07T05:33:03.076Z,5.82
2023-11-07T05:38:07.437Z,8.70
2023-11-07T05:43:12.933Z,7.93
2023-11-07T05:48:18.054Z,7.22
2023-11-07T05:53:22.796Z,7.38
2023-11-07T05:58:28.389Z,8.95
2023-11-07T06:03:33.133Z,4.40
2023-11-07T06:08:37.610Z,14.82
2023-11-07T06:13:43.340Z,9.48
2023-11-07T06:18:47.268Z,17.17
2023-11-07T06:23:51.217Z,20.13
2023-11-07T06:28:56.445Z,28.35
2023-11-07T06:34:00.971Z,20.70
2023-11-07T06:39:09.825Z,22.05
2023-11-07T06:44:15.880Z,28.27
2023-11-07T06:49:20.142Z,12.13
2023-11-07T06:54:25.745Z,10.40
2023-11-07T06:59:32.946Z,12.45
2023-11-07T07:04:36.992Z,12.40
2023-11-07T07:09:44.641Z,9.02
2023-11-07T07:14:50.151Z,7.35
2023-11-07T07:19:55.131Z,6.80
2023-11-07T07:25:00.992Z,5.07
2023-11-07T07:30:10.532Z,6.43
2023-11-07T07:35:16.614Z,12.23
2023-11-07T07:40:25.617Z,14.45
2023-11-07T07:45:32.813Z,6.03
2023-11-07T07:55:48.020Z,6.90
2023-11-07T08:00:54.744Z,2.80
2023-11-07T08:05:59.292Z,3.47
2023-11-07T08:11:03.300Z,2.72
2023-11-07T08:16:11.950Z,3.78
2023-11-07T08:21:16.618Z,2.47
2023-11-07T08:26:21.035Z,2.10
2023-11-07T08:31:26.346Z,2.78
2023-11-07T08:36:31.435Z,2.92
2023-11-07T08:41:35.515Z,4.25
2023-11-07T08:46:41.091Z,3.25
2023-11-07T08:51:45.209Z,2.25
2023-11-07T08:56:50.808Z,2.15
2023-11-07T09:01:56.623Z,2.17
2023-11-07T09:07:02.257Z,2.85
2023-11-07T09:12:06.627Z,2.15
2023-11-07T09:17:13.650Z,2.55
2023-11-07T09:22:17.476Z,1.92
2023-11-07T09:27:21.452Z,2.35
2023-11-07T09:32:27.537Z,2.40
2023-11-07T09:37:31.687Z,1.65
2023-11-07T09:42:35.982Z,1.70
2023-11-07T09:47:41.332Z,2.60
2023-11-07T09:52:47.185Z,1.35
2023-11-07T09:58:08.698Z,1.80
2023-11-07T10:03:19.722Z,2.15
2023-11-07T10:08:26.414Z,1.88
2023-11-07T10:13:30.628Z,2.00
2023-11-07T10:18:47.861Z,1.80
2023-11-07T10:23:56.141Z,2.38
2023-11-07T10:29:17.956Z,1.98
2023-11-07T10:34:27.300Z,2.10
2023-11-07T10:39:31.985Z,2.00
2023-11-07T10:44:36.276Z,2.95
2023-11-07T10:49:46.274Z,2.25
2023-11-07T10:54:51.236Z,2.97
2023-11-07T11:00:06.682Z,1.75
2023-11-07T11:05:17.036Z,1.75
2023-11-07T11:10:28.789Z,2.10
2023-11-07T11:15:35.985Z,1.55
2023-11-07T11:20:47.316Z,1.50
2023-11-07T11:26:08.310Z,1.50
2023-11-07T11:31:16.047Z,2.33
2023-11-07T11:36:38.816Z,1.93
2023-11-07T11:41:59.041Z,1.73
2023-11-07T11:47:03.664Z,1.73
2023-11-07T11:52:36.121Z,1.63
2023-11-07T11:58:18.177Z,1.73
2023-11-07T12:03:22.293Z,1.48
2023-11-07T12:08:39.498Z,1.77
2023-11-07T12:13:43.919Z,1.35
2023-11-07T12:18:51.495Z,2.03
2023-11-07T12:24:00.377Z,3.00
2023-11-07T12:34:11.182Z,2.30
2023-11-07T12:44:24.994Z,1.42
2023-11-07T12:49:31.139Z,2.33
2023-11-07T12:54:36.766Z,1.92
2023-11-07T12:59:41.009Z,1.85
2023-11-07T13:04:51.225Z,2.28
2023-11-07T13:09:56.523Z,5.90
2023-11-07T13:15:00.603Z,3.58
2023-11-07T13:20:09.715Z,2.78
2023-11-07T13:25:15.176Z,2.42
2023-11-07T13:30:20.285Z,3.25
2023-11-07T13:35:24.231Z,2.97
2023-11-07T13:40:29.579Z,4.78
2023-11-07T13:45:35.968Z,5.28
2023-11-07T13:50:42.089Z,5.53
2023-11-07T13:55:48.135Z,8.18
2023-11-07T14:00:52.702Z,8.20
2023-11-07T14:05:56.735Z,7.65
2023-11-07T14:11:02.965Z,20.58
2023-11-07T14:16:08.157Z,21.65
2023-11-07T14:21:13.999Z,15.30
2023-11-07T14:26:19.425Z,17.77
2023-11-07T14:31:23.407Z,7.72
2023-11-07T14:36:27.523Z,3.67
2023-11-07T14:41:33.082Z,3.17
2023-11-07T14:46:38.070Z,3.03
2023-11-07T14:51:42.551Z,4.10
2023-11-07T14:56:57.827Z,5.30
2023-11-07T15:02:14.557Z,8.30
2023-11-07T15:07:25.934Z,9.00
2023-11-07T15:12:33.704Z,7.55
2023-11-07T15:17:38.930Z,11.93
2023-11-07T15:22:44.094Z,13.55
2023-11-07T15:27:49.677Z,14.10
2023-11-07T15:32:54.514Z,23.40
2023-11-07T15:38:01.660Z,22.67
2023-11-07T15:43:07.047Z,22.15
2023-11-07T15:48:12.502Z,25.52
2023-11-07T15:53:17.237Z,15.65
2023-11-07T15:58:22.780Z,10.50
2023-11-07T16:03:27.097Z,11.73
2023-11-07T16:08:31.418Z,19.45
2023-11-07T16:13:36.836Z,17.52
2023-11-07T16:18:41.105Z,19.92
2023-11-07T16:23:45.488Z,22.30
2023-11-07T16:28:53.143Z,17.98
2023-11-07T16:33:58.646Z,19.90
2023-11-07T16:39:03.466Z,26.42
2023-11-07T16:44:09.445Z,26.88
2023-11-07T16:49:14.599Z,38.38
2023-11-07T16:54:18.664Z,26.23
2023-11-07T16:59:25.152Z,34.47
2023-11-07T17:04:29.512Z,21.85
2023-11-07T17:09:34.237Z,41.05
2023-11-07T17:14:40.581Z,24.17
2023-11-07T17:19:45.121Z,16.80
2023-11-07T17:24:51.513Z,19.38
2023-11-07T17:29:56.986Z,15.02
2023-11-07T17:35:05.164Z,6.15
2023-11-07T17:40:11.130Z,9.00
2023-11-07T17:45:16.603Z,40.33
2023-11-07T17:50:20.779Z,17.33
2023-11-07T17:55:25.083Z,10.68
2023-11-07T18:00:30.583Z,26.42
2023-11-07T18:05:34.860Z,11.93
2023-11-07T18:10:39.004Z,11.30
2023-11-07T18:15:46.565Z,11.10
2023-11-07T18:20:51.358Z,9.32
2023-11-07T18:25:55.419Z,11.27
2023-11-07T18:31:01.169Z,12.18
2023-11-07T18:36:05.888Z,11.43
2023-11-07T18:41:10.140Z,14.23
2023-11-07T18:46:16.846Z,11.20
2023-11-07T18:51:23.443Z,11.70
2023-11-07T18:56:27.468Z,17.92
2023-11-07T19:01:32.766Z,13.05
2023-11-07T19:06:37.815Z,10.40
2023-11-07T19:11:43.996Z,10.70
2023-11-07T19:16:51.205Z,15.05
2023-11-07T19:21:56.858Z,6.60
2023-11-07T19:27:01.347Z,8.57
2023-11-07T19:32:07.838Z,7.32
2023-11-07T19:37:12.903Z,8.73
2023-11-07T19:42:16.952Z,8.68
2023-11-07T19:47:22.489Z,9.90
2023-11-07T19:52:26.688Z,16.20
2023-11-07T19:57:31.602Z,12.88
2023-11-07T20:02:38.279Z,9.88
2023-11-07T20:07:51.350Z,19.73
2023-11-07T20:13:01.404Z,8.43
2023-11-07T20:18:07.829Z,10.43
2023-11-07T20:23:15.042Z,15.00
2023-11-07T20:28:19.352Z,7.53
2023-11-07T20:33:31.373Z,7.35
2023-11-07T20:38:41.800Z,8.55
2023-11-07T20:43:47.480Z,7.10
2023-11-07T20:48:53.200Z,7.65
2023-11-07T20:53:57.099Z,4.97
2023-11-07T20:59:02.360Z,4.22
2023-11-07T21:04:08.579Z,7.97
2023-11-07T21:09:15.712Z,7.65
2023-11-07T21:14:21.332Z,6.97
2023-11-07T21:19:27.496Z,7.95
2023-11-07T21:24:31.485Z,9.02
2023-11-07T21:29:36.800Z,8.35
2023-11-07T21:34:44.672Z,6.97
2023-11-07T21:39:48.726Z,10.25
2023-11-07T21:44:52.618Z,11.35
2023-11-07T21:49:58.147Z,6.75
2023-11-07T21:55:03.101Z,7.63
2023-11-07T22:00:09.303Z,9.65
2023-11-07T22:05:21.857Z,8.30
2023-11-07T22:10:26.119Z,5.53
2023-11-07T22:15:30.110Z,5.53
2023-11-07T22:20:35.602Z,7.28
2023-11-07T22:25:40.206Z,5.85
2023-11-07T22:30:44.198Z,6.22
2023-11-07T22:35:53.017Z,5.45
2023-11-07T22:40:57.210Z,3.90
2023-11-07T22:46:01.106Z,5.07
2023-11-07T22:51:06.625Z,5.15
2023-11-07T22:56:10.616Z,4.35
2023-11-07T23:01:15.189Z,4.30
2023-11-07T23:06:20.568Z,5.53
2023-11-07T23:11:25.472Z,4.93
2023-11-07T23:16:29.948Z,5.70
2023-11-07T23:21:35.761Z,5.18
2023-11-07T23:26:47.953Z,5.65
2023-11-07T23:31:53.965Z,5.40
2023-11-07T23:36:59.413Z,7.95
2023-11-07T23:42:03.356Z,5.30
2023-11-07T23:47:08.292Z,5.20
2023-11-07T23:52:14.151Z,5.50
2023-11-07T23:57:18.116Z,6.30
